OAE21 KPVD-KPIT
Flight info
| Callsign | OAE21 |
|---|---|
| Flight time | 1h 21m |
| Altitude | 38000 |
| Route | PUT CTR HNK KONJE SLT HAYNZ7 |
| Aircraft | B763/H-SDE3FGHIM3RWXY/LB1 |
Departure
| Time | 2026-05-06 23:06 |
|---|---|
| Airport | Rhode Island T. F. Green International Airport (KPVD) |
Arrival
| Time | 2026-05-07 00:27 |
|---|---|
| Airport | Pittsburgh International Airport (KPIT) |
| Time | Latitude | Longitude | Altitude | Speed | Heading |
|---|---|---|---|---|---|
| 2026-05-06 22:40 | 41.73131 | -71.42421 | 67 ft | 0 kts | 179° |
| 2026-05-06 22:57 | 41.73140 | -71.42421 | 67 ft | 1 kts | 179° |
| 2026-05-06 22:58 | 41.73155 | -71.42423 | 67 ft | 2 kts | 156° |
| 2026-05-06 22:58 | 41.73168 | -71.42435 | 67 ft | 2 kts | 134° |
| 2026-05-06 22:58 | 41.73177 | -71.42451 | 67 ft | 2 kts | 112° |
| 2026-05-06 22:58 | 41.73180 | -71.42469 | 68 ft | 1 kts | 92° |
| 2026-05-06 22:59 | 41.73180 | -71.42477 | 68 ft | 1 kts | 88° |
| 2026-05-06 22:59 | 41.73180 | -71.42479 | 68 ft | 0 kts | 88° |
| 2026-05-06 23:02 | 41.73180 | -71.42477 | 68 ft | 1 kts | 88° |
| 2026-05-06 23:02 | 41.73177 | -71.42431 | 67 ft | 7 kts | 104° |
| 2026-05-06 23:02 | 41.73146 | -71.42348 | 66 ft | 11 kts | 120° |
| 2026-05-06 23:03 | 41.73103 | -71.42253 | 66 ft | 12 kts | 123° |
| 2026-05-06 23:03 | 41.73093 | -71.42233 | 66 ft | 0 kts | 123° |
| 2026-05-06 23:04 | 41.73074 | -71.42192 | 65 ft | 9 kts | 122° |
| 2026-05-06 23:04 | 41.72991 | -71.42153 | 65 ft | 16 kts | 200° |
| 2026-05-06 23:04 | 41.72957 | -71.42173 | 65 ft | 0 kts | 211° |
| 2026-05-06 23:05 | 41.72861 | -71.42255 | 66 ft | 47 kts | 212° |
| 2026-05-06 23:05 | 41.72373 | -71.42665 | 69 ft | 115 kts | 212° |
| 2026-05-06 23:05 | 41.71531 | -71.43372 | 297 ft | 157 kts | 212° |
| 2026-05-06 23:06 | 41.70651 | -71.44276 | 1062 ft | 168 kts | 236° |
| 2026-05-06 23:06 | 41.70336 | -71.45699 | 2085 ft | 164 kts | 256° |
| 2026-05-06 23:06 | 41.70174 | -71.47330 | 2484 ft | 189 kts | 257° |
| 2026-05-06 23:06 | 41.70138 | -71.49191 | 3025 ft | 215 kts | 277° |
| 2026-05-06 23:07 | 41.70916 | -71.51034 | 3720 ft | 249 kts | 308° |
| 2026-05-06 23:07 | 41.72324 | -71.52502 | 4690 ft | 260 kts | 314° |
| 2026-05-06 23:07 | 41.73679 | -71.54076 | 5665 ft | 264 kts | 310° |
| 2026-05-06 23:07 | 41.75023 | -71.55772 | 6734 ft | 266 kts | 309° |
| 2026-05-06 23:08 | 41.76335 | -71.57504 | 7784 ft | 268 kts | 308° |
| 2026-05-06 23:08 | 41.77658 | -71.59299 | 8770 ft | 272 kts | 307° |
| 2026-05-06 23:08 | 41.78967 | -71.61098 | 9812 ft | 273 kts | 306° |
| 2026-05-06 23:08 | 41.80304 | -71.62962 | 10520 ft | 287 kts | 306° |
| 2026-05-06 23:09 | 41.81758 | -71.65015 | 10733 ft | 320 kts | 306° |
| 2026-05-06 23:09 | 41.83379 | -71.67291 | 11036 ft | 351 kts | 307° |
| 2026-05-06 23:09 | 41.85123 | -71.69728 | 11839 ft | 366 kts | 307° |
| 2026-05-06 23:09 | 41.86893 | -71.72208 | 12880 ft | 373 kts | 306° |
| 2026-05-06 23:10 | 41.88708 | -71.74760 | 13875 ft | 379 kts | 306° |
| 2026-05-06 23:10 | 41.90554 | -71.77355 | 14838 ft | 386 kts | 306° |
| 2026-05-06 23:10 | 41.92421 | -71.79994 | 15801 ft | 391 kts | 306° |
| 2026-05-06 23:10 | 41.94284 | -71.82694 | 16744 ft | 392 kts | 303° |
| 2026-05-06 23:11 | 41.95818 | -71.85692 | 17494 ft | 391 kts | 291° |
| 2026-05-06 23:11 | 41.96936 | -71.89031 | 18222 ft | 395 kts | 286° |
| 2026-05-06 23:11 | 41.97993 | -71.92381 | 19357 ft | 392 kts | 288° |
| 2026-05-06 23:11 | 41.99056 | -71.95785 | 20244 ft | 394 kts | 287° |
| 2026-05-06 23:12 | 42.00103 | -71.99146 | 21069 ft | 397 kts | 287° |
| 2026-05-06 23:12 | 42.01172 | -72.02606 | 21981 ft | 397 kts | 288° |
| 2026-05-06 23:12 | 42.02226 | -72.06019 | 22885 ft | 396 kts | 287° |
| 2026-05-06 23:12 | 42.03296 | -72.09498 | 23554 ft | 402 kts | 287° |
| 2026-05-06 23:13 | 42.04363 | -72.12969 | 24464 ft | 401 kts | 288° |
| 2026-05-06 23:13 | 42.05420 | -72.16412 | 25171 ft | 404 kts | 287° |
| 2026-05-06 23:13 | 42.06512 | -72.19975 | 25839 ft | 408 kts | 287° |
| 2026-05-06 23:13 | 42.07584 | -72.23475 | 26750 ft | 405 kts | 287° |
| 2026-05-06 23:14 | 42.08671 | -72.27034 | 27359 ft | 409 kts | 287° |
| 2026-05-06 23:14 | 42.09750 | -72.30570 | 28106 ft | 408 kts | 287° |
| 2026-05-06 23:14 | 42.10824 | -72.34094 | 28770 ft | 408 kts | 287° |
| 2026-05-06 23:14 | 42.11894 | -72.37601 | 29640 ft | 403 kts | 286° |
| 2026-05-06 23:15 | 42.12942 | -72.41047 | 30690 ft | 393 kts | 286° |
| 2026-05-06 23:15 | 42.13970 | -72.44440 | 31338 ft | 392 kts | 287° |
| 2026-05-06 23:15 | 42.14997 | -72.47824 | 32019 ft | 389 kts | 286° |
| 2026-05-06 23:15 | 42.16009 | -72.51171 | 32740 ft | 384 kts | 287° |
| 2026-05-06 23:16 | 42.17023 | -72.54524 | 33308 ft | 382 kts | 286° |
| 2026-05-06 23:16 | 42.18014 | -72.57806 | 33875 ft | 380 kts | 286° |
| 2026-05-06 23:16 | 42.19001 | -72.61081 | 34454 ft | 378 kts | 286° |
| 2026-05-06 23:16 | 42.19991 | -72.64370 | 34805 ft | 377 kts | 286° |
| 2026-05-06 23:17 | 42.20991 | -72.67699 | 35200 ft | 377 kts | 286° |
| 2026-05-06 23:17 | 42.21972 | -72.70963 | 35663 ft | 375 kts | 286° |
| 2026-05-06 23:17 | 42.22943 | -72.74200 | 36187 ft | 372 kts | 286° |
| 2026-05-06 23:17 | 42.23919 | -72.77456 | 36575 ft | 373 kts | 285° |
| 2026-05-06 23:18 | 42.24889 | -72.80699 | 37049 ft | 372 kts | 286° |
| 2026-05-06 23:18 | 42.25875 | -72.83995 | 37410 ft | 373 kts | 285° |
| 2026-05-06 23:18 | 42.26842 | -72.87241 | 37714 ft | 374 kts | 286° |
| 2026-05-06 23:19 | 42.28503 | -72.93814 | 37810 ft | 361 kts | 276° |
| 2026-05-06 23:19 | 42.28467 | -73.00535 | 37810 ft | 360 kts | 265° |
| 2026-05-06 23:20 | 42.27982 | -73.07372 | 37795 ft | 362 kts | 264° |
| 2026-05-06 23:20 | 42.27436 | -73.14111 | 37797 ft | 361 kts | 264° |
| 2026-05-06 23:21 | 42.26857 | -73.20892 | 37787 ft | 361 kts | 264° |
| 2026-05-06 23:21 | 42.26267 | -73.27644 | 37786 ft | 359 kts | 264° |
| 2026-05-06 23:22 | 42.25670 | -73.34373 | 37779 ft | 359 kts | 264° |
| 2026-05-06 23:22 | 42.25067 | -73.41112 | 37785 ft | 360 kts | 264° |
| 2026-05-06 23:23 | 42.24454 | -73.47904 | 37784 ft | 358 kts | 264° |
| 2026-05-06 23:23 | 42.23844 | -73.54616 | 37790 ft | 360 kts | 264° |
| 2026-05-06 23:24 | 42.23230 | -73.61332 | 37795 ft | 357 kts | 263° |
| 2026-05-06 23:24 | 42.22613 | -73.68023 | 37812 ft | 357 kts | 264° |
| 2026-05-06 23:25 | 42.21987 | -73.74779 | 37806 ft | 359 kts | 263° |
| 2026-05-06 23:25 | 42.21367 | -73.81446 | 37810 ft | 356 kts | 263° |
| 2026-05-06 23:26 | 42.20739 | -73.88125 | 37805 ft | 355 kts | 264° |
| 2026-05-06 23:26 | 42.20112 | -73.94762 | 37802 ft | 355 kts | 264° |
| 2026-05-06 23:27 | 42.19476 | -74.01452 | 37790 ft | 355 kts | 263° |
| 2026-05-06 23:27 | 42.18842 | -74.08079 | 37789 ft | 355 kts | 263° |
| 2026-05-06 23:28 | 42.18198 | -74.14768 | 37776 ft | 354 kts | 263° |
| 2026-05-06 23:28 | 42.17559 | -74.21368 | 37794 ft | 354 kts | 263° |
| 2026-05-06 23:29 | 42.16909 | -74.28036 | 37791 ft | 354 kts | 263° |
| 2026-05-06 23:29 | 42.16260 | -74.34660 | 37791 ft | 354 kts | 262° |
| 2026-05-06 23:30 | 42.15604 | -74.41298 | 37794 ft | 353 kts | 264° |
| 2026-05-06 23:30 | 42.14949 | -74.47897 | 37803 ft | 352 kts | 264° |
| 2026-05-06 23:31 | 42.14292 | -74.54493 | 37827 ft | 354 kts | 263° |
| 2026-05-06 23:31 | 42.13630 | -74.61085 | 37820 ft | 351 kts | 263° |
| 2026-05-06 23:32 | 42.12968 | -74.67629 | 37846 ft | 350 kts | 262° |
| 2026-05-06 23:32 | 42.12304 | -74.74163 | 37848 ft | 350 kts | 262° |
| 2026-05-06 23:33 | 42.11633 | -74.80722 | 37851 ft | 349 kts | 263° |
| 2026-05-06 23:33 | 42.10963 | -74.87233 | 37856 ft | 349 kts | 263° |
| 2026-05-06 23:34 | 42.10290 | -74.93765 | 37854 ft | 350 kts | 262° |
| 2026-05-06 23:34 | 42.09610 | -75.00292 | 37846 ft | 348 kts | 263° |
| 2026-05-06 23:35 | 42.08928 | -75.06799 | 37849 ft | 347 kts | 263° |
| 2026-05-06 23:35 | 42.08248 | -75.13293 | 37855 ft | 348 kts | 263° |
| 2026-05-06 23:36 | 42.07561 | -75.19796 | 37854 ft | 351 kts | 263° |
| 2026-05-06 23:36 | 42.06863 | -75.26347 | 37855 ft | 348 kts | 262° |
| 2026-05-06 23:37 | 42.06158 | -75.32783 | 37851 ft | 347 kts | 262° |
| 2026-05-06 23:37 | 42.05330 | -75.39251 | 37847 ft | 349 kts | 261° |
| 2026-05-06 23:38 | 42.04501 | -75.45722 | 37852 ft | 350 kts | 262° |
| 2026-05-06 23:38 | 42.03668 | -75.52216 | 37847 ft | 348 kts | 261° |
| 2026-05-06 23:39 | 42.02829 | -75.58699 | 37867 ft | 347 kts | 262° |
| 2026-05-06 23:39 | 42.01995 | -75.65132 | 37867 ft | 350 kts | 261° |
| 2026-05-06 23:40 | 42.01148 | -75.71642 | 37898 ft | 350 kts | 261° |
| 2026-05-06 23:40 | 42.00300 | -75.78110 | 37894 ft | 348 kts | 261° |
| 2026-05-06 23:41 | 41.99450 | -75.84581 | 37896 ft | 349 kts | 261° |
| 2026-05-06 23:41 | 41.98598 | -75.91029 | 37897 ft | 349 kts | 261° |
| 2026-05-06 23:42 | 41.97734 | -75.97542 | 37893 ft | 348 kts | 261° |
| 2026-05-06 23:42 | 41.96872 | -76.04009 | 37898 ft | 349 kts | 261° |
| 2026-05-06 23:43 | 41.96022 | -76.10360 | 37313 ft | 345 kts | 262° |
| 2026-05-06 23:43 | 41.95594 | -76.13538 | 36546 ft | 345 kts | 262° |
| 2026-05-06 23:43 | 41.95166 | -76.16734 | 35886 ft | 346 kts | 261° |
| 2026-05-06 23:43 | 41.94731 | -76.19951 | 35399 ft | 345 kts | 261° |
| 2026-05-06 23:44 | 41.94302 | -76.23119 | 34837 ft | 347 kts | 262° |
| 2026-05-06 23:44 | 41.93868 | -76.26332 | 34340 ft | 346 kts | 261° |
| 2026-05-06 23:44 | 41.93438 | -76.29496 | 33863 ft | 346 kts | 261° |
| 2026-05-06 23:44 | 41.93002 | -76.32703 | 33369 ft | 345 kts | 261° |
| 2026-05-06 23:45 | 41.92562 | -76.35920 | 32679 ft | 349 kts | 261° |
| 2026-05-06 23:45 | 41.92125 | -76.39128 | 32049 ft | 351 kts | 261° |
| 2026-05-06 23:45 | 41.91684 | -76.42338 | 31436 ft | 353 kts | 261° |
| 2026-05-06 23:45 | 41.91239 | -76.45602 | 30850 ft | 353 kts | 260° |
| 2026-05-06 23:46 | 41.90794 | -76.48826 | 30420 ft | 350 kts | 260° |
| 2026-05-06 23:46 | 41.90348 | -76.52048 | 30060 ft | 346 kts | 261° |
| 2026-05-06 23:46 | 41.89908 | -76.55244 | 29609 ft | 344 kts | 260° |
| 2026-05-06 23:46 | 41.89473 | -76.58392 | 29028 ft | 346 kts | 260° |
| 2026-05-06 23:47 | 41.89033 | -76.61572 | 28613 ft | 344 kts | 260° |
| 2026-05-06 23:47 | 41.88598 | -76.64700 | 28258 ft | 341 kts | 260° |
| 2026-05-06 23:47 | 41.88160 | -76.67826 | 27809 ft | 341 kts | 260° |
| 2026-05-06 23:47 | 41.87722 | -76.70963 | 27396 ft | 340 kts | 260° |
| 2026-05-06 23:48 | 41.87285 | -76.74085 | 26943 ft | 341 kts | 259° |
| 2026-05-06 23:48 | 41.86848 | -76.77218 | 26616 ft | 339 kts | 260° |
| 2026-05-06 23:48 | 41.86410 | -76.80325 | 26132 ft | 341 kts | 260° |
| 2026-05-06 23:48 | 41.85968 | -76.83467 | 25824 ft | 338 kts | 259° |
| 2026-05-06 23:49 | 41.85533 | -76.86556 | 25446 ft | 338 kts | 259° |
| 2026-05-06 23:49 | 41.85091 | -76.89684 | 25087 ft | 337 kts | 259° |
| 2026-05-06 23:49 | 41.84648 | -76.92803 | 24667 ft | 339 kts | 259° |
| 2026-05-06 23:49 | 41.84209 | -76.95901 | 24431 ft | 336 kts | 259° |
| 2026-05-06 23:50 | 41.83767 | -76.99001 | 24012 ft | 338 kts | 259° |
| 2026-05-06 23:50 | 41.82899 | -77.05097 | 23899 ft | 329 kts | 259° |
| 2026-05-06 23:50 | 41.82463 | -77.08134 | 23903 ft | 336 kts | 260° |
| 2026-05-06 23:51 | 41.81868 | -77.11177 | 23899 ft | 340 kts | 252° |
| 2026-05-06 23:51 | 41.80896 | -77.14070 | 23895 ft | 338 kts | 248° |
| 2026-05-06 23:51 | 41.79902 | -77.16951 | 23908 ft | 335 kts | 248° |
| 2026-05-06 23:51 | 41.78910 | -77.19794 | 23898 ft | 337 kts | 248° |
| 2026-05-06 23:52 | 41.77913 | -77.22634 | 23907 ft | 339 kts | 248° |
| 2026-05-06 23:52 | 41.76901 | -77.25507 | 23889 ft | 336 kts | 248° |
| 2026-05-06 23:52 | 41.75901 | -77.28338 | 23909 ft | 334 kts | 248° |
| 2026-05-06 23:52 | 41.74900 | -77.31166 | 23899 ft | 335 kts | 248° |
| 2026-05-06 23:53 | 41.73889 | -77.34020 | 23910 ft | 337 kts | 248° |
| 2026-05-06 23:53 | 41.72874 | -77.36877 | 23899 ft | 337 kts | 248° |
| 2026-05-06 23:53 | 41.71853 | -77.39742 | 23898 ft | 335 kts | 248° |
| 2026-05-06 23:53 | 41.70846 | -77.42573 | 23897 ft | 332 kts | 249° |
| 2026-05-06 23:54 | 41.69849 | -77.45371 | 23906 ft | 332 kts | 248° |
| 2026-05-06 23:54 | 41.68851 | -77.48171 | 23896 ft | 334 kts | 248° |
| 2026-05-06 23:54 | 41.67850 | -77.50974 | 23900 ft | 332 kts | 248° |
| 2026-05-06 23:54 | 41.66851 | -77.53761 | 23896 ft | 329 kts | 249° |
| 2026-05-06 23:55 | 41.65858 | -77.56541 | 23902 ft | 331 kts | 248° |
| 2026-05-06 23:55 | 41.64849 | -77.59360 | 23892 ft | 334 kts | 249° |
| 2026-05-06 23:55 | 41.63836 | -77.62189 | 23897 ft | 341 kts | 249° |
| 2026-05-06 23:55 | 41.62782 | -77.65125 | 23888 ft | 345 kts | 248° |
| 2026-05-06 23:56 | 41.61753 | -77.67989 | 23905 ft | 342 kts | 247° |
| 2026-05-06 23:56 | 41.60714 | -77.70870 | 23905 ft | 339 kts | 248° |
| 2026-05-06 23:56 | 41.59682 | -77.73734 | 23907 ft | 341 kts | 248° |
| 2026-05-06 23:56 | 41.58654 | -77.76593 | 23913 ft | 342 kts | 248° |
| 2026-05-06 23:57 | 41.57612 | -77.79478 | 23917 ft | 339 kts | 248° |
| 2026-05-06 23:57 | 41.56593 | -77.82298 | 23915 ft | 340 kts | 248° |
| 2026-05-06 23:57 | 41.55556 | -77.85173 | 23910 ft | 341 kts | 248° |
| 2026-05-06 23:57 | 41.54524 | -77.88017 | 23922 ft | 340 kts | 248° |
| 2026-05-06 23:58 | 41.53497 | -77.90856 | 23910 ft | 340 kts | 248° |
| 2026-05-06 23:58 | 41.52445 | -77.93758 | 23923 ft | 338 kts | 248° |
| 2026-05-06 23:58 | 41.51400 | -77.96640 | 23911 ft | 336 kts | 249° |
| 2026-05-06 23:58 | 41.50462 | -77.99535 | 23881 ft | 337 kts | 251° |
| 2026-05-06 23:59 | 41.49554 | -78.02443 | 23647 ft | 341 kts | 250° |
| 2026-05-06 23:59 | 41.48634 | -78.05373 | 23405 ft | 337 kts | 251° |
| 2026-05-06 23:59 | 41.47716 | -78.08302 | 23177 ft | 352 kts | 250° |
| 2026-05-06 23:59 | 41.46739 | -78.11411 | 22922 ft | 377 kts | 250° |
| 2026-05-07 00:00 | 41.45706 | -78.14683 | 22652 ft | 381 kts | 250° |
| 2026-05-07 00:00 | 41.44670 | -78.17956 | 22357 ft | 375 kts | 249° |
| 2026-05-07 00:00 | 41.43664 | -78.21131 | 22059 ft | 370 kts | 250° |
| 2026-05-07 00:00 | 41.42988 | -78.23264 | 21873 ft | 369 kts | 250° |
| 2026-05-07 00:01 | 41.41651 | -78.27483 | 21502 ft | 373 kts | 250° |
| 2026-05-07 00:01 | 41.40626 | -78.30708 | 21209 ft | 375 kts | 250° |
| 2026-05-07 00:01 | 41.39613 | -78.33902 | 20938 ft | 374 kts | 249° |
| 2026-05-07 00:01 | 41.38600 | -78.37077 | 20659 ft | 373 kts | 249° |
| 2026-05-07 00:02 | 41.37573 | -78.40305 | 20368 ft | 373 kts | 249° |
| 2026-05-07 00:02 | 41.36566 | -78.43464 | 20085 ft | 372 kts | 249° |
| 2026-05-07 00:02 | 41.35550 | -78.46646 | 19799 ft | 372 kts | 249° |
| 2026-05-07 00:02 | 41.34523 | -78.49860 | 19517 ft | 372 kts | 249° |
| 2026-05-07 00:03 | 41.33504 | -78.53039 | 19226 ft | 371 kts | 249° |
| 2026-05-07 00:03 | 41.32494 | -78.56191 | 18959 ft | 370 kts | 249° |
| 2026-05-07 00:03 | 41.31477 | -78.59358 | 18677 ft | 371 kts | 249° |
| 2026-05-07 00:03 | 41.30460 | -78.62526 | 18393 ft | 373 kts | 249° |
| 2026-05-07 00:04 | 41.29427 | -78.65741 | 18111 ft | 372 kts | 249° |
| 2026-05-07 00:04 | 41.28411 | -78.68890 | 17856 ft | 369 kts | 249° |
| 2026-05-07 00:04 | 41.27398 | -78.72033 | 17594 ft | 369 kts | 249° |
| 2026-05-07 00:04 | 41.26388 | -78.75169 | 17342 ft | 366 kts | 248° |
| 2026-05-07 00:05 | 41.25389 | -78.78257 | 17074 ft | 363 kts | 248° |
| 2026-05-07 00:05 | 41.24373 | -78.81402 | 16812 ft | 364 kts | 249° |
| 2026-05-07 00:05 | 41.23365 | -78.84507 | 16542 ft | 361 kts | 248° |
| 2026-05-07 00:05 | 41.22378 | -78.87556 | 16285 ft | 358 kts | 248° |
| 2026-05-07 00:06 | 41.21387 | -78.90604 | 16028 ft | 356 kts | 249° |
| 2026-05-07 00:06 | 41.20407 | -78.93629 | 15781 ft | 355 kts | 249° |
| 2026-05-07 00:06 | 41.19431 | -78.96622 | 15533 ft | 356 kts | 249° |
| 2026-05-07 00:06 | 41.18440 | -78.99674 | 15272 ft | 356 kts | 248° |
| 2026-05-07 00:07 | 41.17462 | -79.02664 | 15028 ft | 353 kts | 248° |
| 2026-05-07 00:07 | 41.16486 | -79.05663 | 14764 ft | 350 kts | 248° |
| 2026-05-07 00:07 | 41.15511 | -79.08643 | 14520 ft | 349 kts | 249° |
| 2026-05-07 00:07 | 41.14530 | -79.11645 | 14264 ft | 352 kts | 248° |
| 2026-05-07 00:08 | 41.13553 | -79.14627 | 14015 ft | 353 kts | 248° |
| 2026-05-07 00:08 | 41.12575 | -79.17613 | 13734 ft | 351 kts | 248° |
| 2026-05-07 00:08 | 41.11589 | -79.20617 | 13461 ft | 348 kts | 248° |
| 2026-05-07 00:08 | 41.10616 | -79.23581 | 13208 ft | 348 kts | 248° |
| 2026-05-07 00:09 | 41.09652 | -79.26510 | 12952 ft | 347 kts | 248° |
| 2026-05-07 00:09 | 41.08691 | -79.29430 | 12842 ft | 331 kts | 248° |
| 2026-05-07 00:09 | 41.07790 | -79.32149 | 12753 ft | 317 kts | 248° |
| 2026-05-07 00:09 | 41.06904 | -79.34856 | 12594 ft | 314 kts | 248° |
| 2026-05-07 00:10 | 41.06033 | -79.37478 | 12387 ft | 306 kts | 248° |
| 2026-05-07 00:10 | 41.05178 | -79.40067 | 12188 ft | 308 kts | 248° |
| 2026-05-07 00:10 | 41.04312 | -79.42699 | 11998 ft | 311 kts | 248° |
| 2026-05-07 00:10 | 41.03429 | -79.45354 | 11795 ft | 312 kts | 248° |
| 2026-05-07 00:11 | 41.02561 | -79.47984 | 11588 ft | 309 kts | 247° |
| 2026-05-07 00:11 | 41.01680 | -79.50633 | 11386 ft | 309 kts | 248° |
| 2026-05-07 00:11 | 41.00780 | -79.53199 | 11178 ft | 307 kts | 243° |
| 2026-05-07 00:11 | 40.99453 | -79.55405 | 10650 ft | 310 kts | 227° |
| 2026-05-07 00:12 | 40.97568 | -79.56956 | 10289 ft | 325 kts | 208° |
| 2026-05-07 00:12 | 40.95359 | -79.57786 | 10120 ft | 328 kts | 200° |
| 2026-05-07 00:12 | 40.93143 | -79.58461 | 10026 ft | 317 kts | 200° |
| 2026-05-07 00:12 | 40.90997 | -79.59090 | 9976 ft | 298 kts | 201° |
| 2026-05-07 00:13 | 40.89004 | -79.59660 | 9944 ft | 282 kts | 201° |
| 2026-05-07 00:13 | 40.87128 | -79.60183 | 9908 ft | 267 kts | 201° |
| 2026-05-07 00:13 | 40.85320 | -79.60674 | 9545 ft | 267 kts | 201° |
| 2026-05-07 00:13 | 40.83487 | -79.61186 | 9217 ft | 265 kts | 200° |
| 2026-05-07 00:14 | 40.81689 | -79.61716 | 8841 ft | 266 kts | 200° |
| 2026-05-07 00:14 | 40.79887 | -79.62273 | 8764 ft | 265 kts | 201° |
| 2026-05-07 00:14 | 40.78076 | -79.62850 | 8633 ft | 263 kts | 205° |
| 2026-05-07 00:14 | 40.76379 | -79.63759 | 8592 ft | 258 kts | 211° |
| 2026-05-07 00:15 | 40.74738 | -79.64735 | 8465 ft | 259 kts | 211° |
| 2026-05-07 00:15 | 40.73090 | -79.65726 | 8386 ft | 259 kts | 211° |
| 2026-05-07 00:15 | 40.71434 | -79.66718 | 8302 ft | 260 kts | 210° |
| 2026-05-07 00:15 | 40.69777 | -79.67714 | 8250 ft | 258 kts | 210° |
| 2026-05-07 00:16 | 40.68132 | -79.68694 | 8047 ft | 259 kts | 210° |
| 2026-05-07 00:16 | 40.66494 | -79.69680 | 7713 ft | 258 kts | 210° |
| 2026-05-07 00:16 | 40.64873 | -79.70673 | 7349 ft | 255 kts | 210° |
| 2026-05-07 00:16 | 40.63264 | -79.71682 | 6562 ft | 263 kts | 210° |
| 2026-05-07 00:17 | 40.61603 | -79.72772 | 5907 ft | 264 kts | 210° |
| 2026-05-07 00:17 | 40.59963 | -79.73865 | 5406 ft | 266 kts | 211° |
| 2026-05-07 00:17 | 40.58317 | -79.74964 | 5130 ft | 264 kts | 210° |
| 2026-05-07 00:17 | 40.56669 | -79.76076 | 4742 ft | 267 kts | 210° |
| 2026-05-07 00:18 | 40.55021 | -79.77188 | 4415 ft | 267 kts | 210° |
| 2026-05-07 00:18 | 40.53363 | -79.78333 | 4088 ft | 267 kts | 210° |
| 2026-05-07 00:18 | 40.51716 | -79.79479 | 3742 ft | 269 kts | 211° |
| 2026-05-07 00:18 | 40.50033 | -79.80639 | 3346 ft | 272 kts | 210° |
| 2026-05-07 00:19 | 40.48367 | -79.81797 | 3115 ft | 269 kts | 210° |
| 2026-05-07 00:19 | 40.46727 | -79.82948 | 2999 ft | 266 kts | 211° |
| 2026-05-07 00:19 | 40.45109 | -79.84096 | 3005 ft | 266 kts | 210° |
| 2026-05-07 00:19 | 40.43454 | -79.85262 | 3009 ft | 270 kts | 210° |
| 2026-05-07 00:20 | 40.41791 | -79.86432 | 3007 ft | 268 kts | 210° |
| 2026-05-07 00:20 | 40.40158 | -79.87586 | 3000 ft | 266 kts | 211° |
| 2026-05-07 00:20 | 40.38512 | -79.88751 | 3014 ft | 269 kts | 210° |
| 2026-05-07 00:20 | 40.36861 | -79.89924 | 2998 ft | 270 kts | 210° |
| 2026-05-07 00:21 | 40.35247 | -79.91158 | 2997 ft | 266 kts | 221° |
| 2026-05-07 00:21 | 40.34114 | -79.93039 | 3014 ft | 260 kts | 251° |
| 2026-05-07 00:21 | 40.33831 | -79.95308 | 3012 ft | 243 kts | 277° |
| 2026-05-07 00:21 | 40.34041 | -79.97471 | 3000 ft | 231 kts | 281° |
| 2026-05-07 00:22 | 40.34256 | -79.99534 | 2990 ft | 220 kts | 280° |
| 2026-05-07 00:22 | 40.34464 | -80.01490 | 2990 ft | 209 kts | 280° |
| 2026-05-07 00:22 | 40.34672 | -80.03320 | 2993 ft | 197 kts | 288° |
| 2026-05-07 00:22 | 40.35375 | -80.04748 | 3084 ft | 180 kts | 319° |
| 2026-05-07 00:23 | 40.36287 | -80.05883 | 3116 ft | 187 kts | 316° |
| 2026-05-07 00:23 | 40.37228 | -80.07098 | 2993 ft | 186 kts | 316° |
| 2026-05-07 00:23 | 40.38145 | -80.08259 | 3003 ft | 183 kts | 317° |
| 2026-05-07 00:23 | 40.39039 | -80.09380 | 3028 ft | 169 kts | 317° |
| 2026-05-07 00:24 | 40.39872 | -80.10420 | 2983 ft | 161 kts | 317° |
| 2026-05-07 00:24 | 40.40695 | -80.11441 | 3018 ft | 163 kts | 317° |
| 2026-05-07 00:24 | 40.41551 | -80.12502 | 2859 ft | 174 kts | 317° |
| 2026-05-07 00:24 | 40.42429 | -80.13590 | 2614 ft | 168 kts | 317° |
| 2026-05-07 00:25 | 40.43230 | -80.14582 | 2422 ft | 148 kts | 317° |
| 2026-05-07 00:25 | 40.43943 | -80.15468 | 2169 ft | 134 kts | 317° |
| 2026-05-07 00:25 | 40.44606 | -80.16293 | 1992 ft | 131 kts | 316° |
| 2026-05-07 00:25 | 40.45289 | -80.17139 | 1856 ft | 138 kts | 316° |
| 2026-05-07 00:26 | 40.45999 | -80.18016 | 1671 ft | 139 kts | 316° |
| 2026-05-07 00:26 | 40.46699 | -80.18893 | 1470 ft | 140 kts | 316° |
| 2026-05-07 00:26 | 40.47417 | -80.19768 | 1301 ft | 142 kts | 317° |
| 2026-05-07 00:26 | 40.48137 | -80.20661 | 1120 ft | 139 kts | 316° |
| 2026-05-07 00:27 | 40.48760 | -80.21437 | 1129 ft | 87 kts | 317° |
| 2026-05-07 00:27 | 40.49059 | -80.21810 | 1141 ft | 43 kts | 317° |
| 2026-05-07 00:27 | 40.49187 | -80.21970 | 1142 ft | 23 kts | 319° |
| 2026-05-07 00:27 | 40.49315 | -80.21959 | 1146 ft | 14 kts | 34° |
| 2026-05-07 00:28 | 40.49377 | -80.21983 | 1147 ft | 9 kts | 320° |
| 2026-05-07 00:28 | 40.49434 | -80.22054 | 1146 ft | 13 kts | 315° |
| 2026-05-07 00:28 | 40.49513 | -80.22155 | 1146 ft | 20 kts | 317° |
| 2026-05-07 00:28 | 40.49625 | -80.22291 | 1144 ft | 19 kts | 327° |
| 2026-05-07 00:29 | 40.49708 | -80.22289 | 1144 ft | 7 kts | 350° |
| 2026-05-07 00:29 | 40.49759 | -80.22317 | 1144 ft | 6 kts | 313° |